Latest Weather Observations for Cairns

IDQ60801

Issued at 4:02 am EST Sunday 14 April 2024 (issued every 10 minutes, with the page automatically refreshed every 10 minutes)

About weather observations | Map of weather stations | Latest weather observations for QLD | Other Formats
Station Details ID: 031011 Name: CAIRNS AERO Lat: -16.87 Lon: 145.75 Height: 2.22 m
Data from the previous 72 hours. | See also: Recent months at Cairns
Date/Time
EST
Temp
°C
App
Temp
°C
Dew
Point
°C
Rel
Hum
%
Delta-T
°C
Wind Press
QNH
hPa
Press
MSL
hPa
Rain since
9am
mm
Dir  Spd
km/h
Gust
km/h
Spd
kts
Gust
kts
14/04:00am 24.2 24.9 21.5 85 1.8 S 20 33 11 18 1014.3 1014.3 17.4
14/03:30am 24.0 24.8 21.7 87 1.5 S 20 30 11 16 1014.3 1014.3 17.4
14/03:10am 23.9 25.4 22.0 89 1.3 S 17 28 9 15 1014.4 1014.4 17.4
14/03:00am 23.4 25.3 22.0 92 0.9 S 15 24 8 13 1014.5 1014.5 17.0
14/02:52am 23.6 25.5 22.0 91 1.1 S 15 26 8 14 1014.5 1014.5 16.6
14/02:30am 23.6 25.9 22.0 91 1.1 S 13 20 7 11 1014.6 1014.6 14.6
14/02:21am 23.4 25.9 21.8 91 1.1 SSE 11 19 6 10 1014.7 1014.7 14.4
14/02:08am 23.4 24.9 22.0 92 0.9 S 17 30 9 16 1014.8 1014.8 14.2
14/02:00am 23.1 25.7 21.9 93 0.8 SSE 11 19 6 10 1014.8 1014.8 14.2
14/01:46am 23.3 26.0 22.1 93 0.8 S 11 17 6 9 1014.9 1014.9 13.0
14/01:42am 23.4 26.1 22.2 93 0.8 S 11 19 6 10 1014.9 1014.9 12.8
14/01:30am 23.2 26.1 21.8 92 0.9 S 9 13 5 7 1014.9 1014.9 12.0
14/01:00am 22.9 24.7 21.9 94 0.7 SSE 15 20 8 11 1015.4 1015.4 12.0
14/12:50am 22.9 25.1 21.9 94 0.7 SSE 13 17 7 9 1015.6 1015.6 11.8
14/12:32am 23.1 25.2 21.7 92 0.9 SSE 13 22 7 12 1015.5 1015.5 11.6
14/12:30am 23.1 25.2 21.7 92 0.9 SSE 13 22 7 12 1015.5 1015.5 11.6
14/12:10am 23.2 24.7 22.0 93 0.8 SSE 17 26 9 14 1016.0 1016.0 11.2
14/12:00am 23.5 25.3 21.8 90 1.1 SSE 15 22 8 12 1015.7 1015.7 10.2
 
Date/Time
EST
Temp
°C
App
Temp
°C
Dew
Point
°C
Rel
Hum
%
Delta-T
°C
Wind Press
QNH
hPa
Press
MSL
hPa
Rain since
9am
mm
Dir  Spd
km/h
Gust
km/h
Spd
kts
Gust
kts
13/11:30pm 23.1 24.5 21.9 93 0.8 SSE 17 26 9 14 1016.2 1016.2 10.2
13/11:00pm 23.2 24.0 21.8 92 0.9 SSE 20 30 11 16 1016.3 1016.3 10.2
13/10:30pm 23.7 25.6 22.7 94 0.7 SSE 17 26 9 14 1016.1 1016.1 10.0
13/10:24pm 23.7 24.7 22.1 91 1.1 SSE 20 28 11 15 1016.1 1016.1 10.0
13/10:12pm 24.2 26.3 22.5 90 1.1 SSE 15 24 8 13 1016.1 1016.1 9.6
13/10:00pm 24.0 26.1 22.4 91 1.1 SSE 15 19 8 10 1016.0 1016.0 9.6
13/09:30pm 23.8 25.5 22.4 92 0.9 S 17 26 9 14 1015.8 1015.8 9.6
13/09:04pm 23.8 25.5 22.4 92 0.9 S 17 26 9 14 1015.7 1015.7 9.0
13/09:00pm 23.7 25.8 22.5 93 0.8 S 15 26 8 14 1015.7 1015.7 9.0
13/08:37pm 23.8 25.8 22.2 91 1.1 SSE 15 28 8 15 1015.7 1015.7 6.0
13/08:30pm 24.7 27.2 21.8 84 1.9 S 11 19 6 10 1015.3 1015.3 5.4
13/08:00pm 24.2 26.5 22.1 88 1.4 SSE 13 22 7 12 1015.1 1015.1 5.4
13/07:30pm 24.1 26.0 22.0 88 1.4 S 15 20 8 11 1014.8 1014.8 5.4
13/07:00pm 24.7 25.5 21.4 82 2.2 S 19 26 10 14 1014.5 1014.5 5.4
13/06:30pm 24.5 26.7 21.8 85 1.8 SSW 13 24 7 13 1014.3 1014.3 5.4
13/06:00pm 24.6 26.3 21.7 84 1.9 S 15 26 8 14 1014.1 1014.1 5.4
13/05:30pm 24.4 26.5 22.5 89 1.3 S 15 28 8 15 1014.3 1014.3 5.4
13/05:15pm 23.9 28.0 22.9 94 0.7 SE 6 9 3 5 1014.0 1014.0 5.4
13/05:00pm 23.4 25.1 22.4 94 0.7 SE 17 30 9 16 1014.0 1014.0 5.4
13/04:49pm 24.0 23.6 22.4 91 1.1 E 28 39 15 21 1014.1 1014.1 2.6
13/04:30pm 27.3 28.4 22.0 73 3.6 E 19 28 10 15 1013.3 1013.3 0.8
13/04:00pm 28.5 30.2 21.0 64 5.0 S 13 22 7 12 1013.0 1013.0 0.8
13/03:30pm 27.8 28.9 21.3 67 4.3 SSE 17 26 9 14 1012.9 1012.9 0.8
13/03:00pm 28.5 27.2 21.3 65 4.8 SSE 30 37 16 20 1012.9 1012.9 0.8
13/02:30pm 29.0 27.7 20.7 61 5.5 SE 28 39 15 21 1013.0 1013.0 0.8
13/02:00pm 30.0 29.2 22.4 63 5.2 SE 30 35 16 19 1013.1 1013.1 0.8
13/01:30pm 28.4 28.0 21.7 67 4.5 SSE 26 35 14 19 1013.3 1013.3 0.8
13/01:00pm 26.3 27.5 20.6 71 3.7 S 15 20 8 11 1013.8 1013.8 0.8
13/12:30pm 27.4 28.2 22.4 74 3.4 SSE 22 35 12 19 1014.1 1014.1 0.8
13/12:00pm 26.1 25.1 22.6 81 2.4 SE 32 41 17 22 1014.3 1014.3 0.8
13/11:30am 26.6 27.6 22.9 80 2.5 SSE 22 33 12 18 1014.8 1014.8 0.8
13/11:10am 25.2 25.3 21.9 82 2.2 SSE 24 32 13 17 1015.1 1015.1 0.8
13/11:00am 25.0 25.1 23.2 90 1.2 SE 28 37 15 20 1015.3 1015.3 0.8
13/10:56am 24.7 24.2 22.2 86 1.7 SE 28 41 15 22 1015.4 1015.4 0.8
13/10:30am 28.0 26.5 22.0 70 4.0 SSE 33 41 18 22 1015.2 1015.2 0.2
13/10:00am 28.0 27.8 21.3 67 4.5 SSE 24 32 13 17 1015.1 1015.1 0.2
13/09:30am 27.9 27.9 21.0 66 4.6 SSE 22 32 12 17 1015.0 1015.0 0.0
13/09:00am 27.0 26.9 20.8 69 4.1 SSE 22 30 12 16 1014.9 1014.9 10.2
13/08:30am 25.9 26.4 21.1 75 3.2 SSE 20 30 11 16 1014.6 1014.6 10.2
13/08:00am 25.5 25.8 20.3 73 3.4 SSE 19 28 10 15 1014.4 1014.4 10.2
13/07:30am 24.6 24.8 20.5 78 2.7 SSE 20 28 11 15 1014.2 1014.2 10.2
13/07:00am 24.1 24.0 20.0 78 2.6 S 20 33 11 18 1013.7 1013.7 10.2
13/06:30am 24.1 23.9 19.8 77 2.8 S 20 33 11 18 1013.3 1013.3 10.2
13/06:00am 23.9 24.2 20.4 81 2.3 S 19 30 10 16 1013.1 1013.1 10.2
13/05:30am 23.8 24.0 20.5 82 2.1 SSE 20 30 11 16 1012.8 1012.8 10.2
13/05:00am 23.6 24.5 20.9 85 1.8 SSE 17 24 9 13 1012.8 1012.8 10.2
13/04:30am 24.3 24.7 20.6 80 2.4 S 19 30 10 16 1012.5 1012.5 10.2
13/04:00am 24.2 24.3 21.1 83 2.0 SSE 22 32 12 17 1012.6 1012.6 10.2
13/03:30am 24.0 24.6 21.1 84 1.9 SSE 19 32 10 17 1012.6 1012.6 10.2
13/03:00am 24.0 23.7 21.1 84 1.9 S 24 41 13 22 1012.6 1012.6 10.2
13/02:30am 23.7 24.4 21.6 88 1.4 S 20 30 11 16 1012.9 1012.9 10.2
13/02:00am 23.9 24.9 21.8 88 1.4 S 19 28 10 15 1013.1 1013.1 10.2
13/01:30am 23.8 24.9 21.9 89 1.3 S 19 28 10 15 1013.2 1013.2 10.2
13/01:00am 23.9 25.7 21.8 88 1.4 S 15 24 8 13 1013.5 1013.5 10.2
13/12:31am 23.2 26.1 21.8 92 0.9 S 9 15 5 8 1013.8 1013.8 10.2
13/12:30am 23.2 26.3 22.2 94 0.7 SSE 9 15 5 8 1013.9 1013.9 10.2
13/12:29am 23.2 26.3 22.2 94 0.7 SSE 9 13 5 7 1013.9 1013.9 10.2
13/12:12am 23.4 25.4 22.2 93 0.8 SE 15 22 8 12 1014.2 1014.2 9.6
13/12:08am 23.4 25.4 22.2 93 0.8 SE 15 22 8 12 1014.3 1014.3 9.4
13/12:00am 23.8 25.7 22.1 90 1.1 SSE 15 20 8 11 1014.3 1014.3 8.4
 
Date/Time
EST
Temp
°C
App
Temp
°C
Dew
Point
°C
Rel
Hum
%
Delta-T
°C
Wind Press
QNH
hPa
Press
MSL
hPa
Rain since
9am
mm
Dir  Spd
km/h
Gust
km/h
Spd
kts
Gust
kts
12/11:52pm 23.7 25.6 22.0 90 1.1 S 15 22 8 12 1014.3 1014.3 8.4
12/11:35pm 23.5 27.0 22.1 92 0.9 SSW 7 15 4 8 1014.3 1014.3 8.2
12/11:30pm 23.4 26.9 22.2 93 0.8 SSW 7 11 4 6 1014.3 1014.3 8.2
12/11:14pm 23.5 26.3 22.3 93 0.8 SSE 11 13 6 7 1014.6 1014.6 7.4
12/11:12pm 23.6 26.5 22.4 93 0.8 SSE 11 13 6 7 1014.6 1014.6 7.0
12/11:00pm 23.9 26.6 22.2 90 1.1 S 11 17 6 9 1014.4 1014.4 6.2
12/10:30pm 23.6 26.0 22.2 92 0.9 S 13 22 7 12 1014.5 1014.5 6.2
12/10:10pm 23.6 25.5 22.0 91 1.1 S 15 20 8 11 1014.4 1014.4 6.2
12/10:02pm 23.3 25.7 22.3 94 0.7 S 13 19 7 10 1014.5 1014.5 6.2
12/10:00pm 23.2 26.1 22.4 95 0.5 S 11 19 6 10 1014.6 1014.6 6.2
12/09:35pm 23.2 24.9 22.4 95 0.5 SSE 17 20 9 11 1014.7 1014.7 4.8
12/09:30pm 23.4 25.5 22.4 94 0.7 SSE 15 20 8 11 1014.8 1014.8 4.2
12/09:22pm 23.6 25.9 22.0 91 1.1 SSE 13 19 7 10 1014.5 1014.5 2.6
12/09:00pm 23.7 25.6 22.0 90 1.1 S 15 26 8 14 1014.4 1014.4 2.2
12/08:45pm 23.4 25.0 22.2 93 0.8 S 17 28 9 15 1014.5 1014.5 2.2
12/08:30pm 23.4 25.5 22.4 94 0.7 SSE 15 22 8 12 1014.5 1014.5 2.0
12/08:25pm 23.5 25.5 22.3 93 0.8 SSE 15 22 8 12 1014.4 1014.4 2.0
12/08:01pm 23.6 26.0 22.2 92 0.9 SSE 13 26 7 14 1014.0 1014.0 1.2
12/08:00pm 23.7 26.1 22.3 92 0.9 SSE 13 26 7 14 1014.0 1014.0 1.2
12/07:46pm 24.2 26.2 22.3 89 1.3 SSE 15 24 8 13 1013.6 1013.6 0.2
12/07:31pm 24.2 24.5 22.3 89 1.3 SE 24 32 13 17 1013.5 1013.5 0.2
12/07:30pm 24.2 24.8 22.1 88 1.4 SE 22 32 12 17 1013.5 1013.5 0.2
12/07:00pm 25.6 28.5 21.7 79 2.6 SE 9 15 5 8 1012.8 1012.8 0.0
12/06:30pm 25.2 24.8 21.7 81 2.3 SE 26 39 14 21 1012.5 1012.5 0.0
12/06:00pm 27.2 26.4 20.8 68 4.2 SE 26 33 14 18 1012.1 1012.1 0.0
12/05:30pm 27.7 27.9 20.5 65 4.7 SE 20 28 11 15 1011.5 1011.5 0.0
12/05:00pm 28.3 28.0 21.1 65 4.8 SE 24 30 13 16 1011.3 1011.3 0.0
12/04:30pm 29.0 28.8 22.0 66 4.7 SE 26 32 14 17 1011.2 1011.2 0.0
12/04:00pm 29.5 28.7 21.7 63 5.2 SE 28 35 15 19 1010.9 1010.9 0.0
12/03:30pm 30.3 29.3 20.5 55 6.5 ESE 26 32 14 17 1010.9 1010.9 0.0
12/03:00pm 30.0 28.6 19.7 54 6.8 SE 26 32 14 17 1011.0 1011.0 0.0
12/02:30pm 30.3 28.9 19.6 52 7.0 SE 26 33 14 18 1011.2 1011.2 0.0
12/02:00pm 30.6 29.2 20.5 54 6.7 SE 28 35 15 19 1011.5 1011.5 0.0
12/01:30pm 30.4 28.0 20.3 54 6.7 SE 33 41 18 22 1011.7 1011.7 0.0
12/01:00pm 30.4 28.3 19.7 52 7.0 SE 30 43 16 23 1011.9 1011.9 0.0
12/12:30pm 29.8 28.6 20.1 56 6.4 SE 26 37 14 20 1012.3 1012.3 0.0
12/12:00pm 30.1 29.8 20.4 56 6.4 SSE 22 32 12 17 1012.8 1012.8 0.0
12/11:30am 29.9 27.5 19.9 55 6.6 SE 32 37 17 20 1013.5 1013.5 0.0
12/11:00am 29.3 29.6 19.6 56 6.3 S 17 28 9 15 1014.0 1014.0 0.0
12/10:30am 28.2 28.0 19.7 60 5.5 SSE 20 30 11 16 1014.2 1014.2 0.0
12/10:00am 27.9 27.6 19.1 58 5.7 SSE 19 26 10 14 1014.1 1014.1 0.0
12/09:30am 27.4 27.8 18.9 59 5.5 S 15 26 8 14 1014.0 1014.0 0.0
12/09:00am 27.1 26.5 18.4 59 5.5 S 19 28 10 15 1013.9 1013.9 0.0
12/08:30am 26.5 26.0 17.8 58 5.5 S 17 26 9 14 1013.7 1013.7 0.0
12/08:00am 25.5 24.8 17.4 61 5.1 S 17 24 9 13 1013.5 1013.5 0.0
12/07:30am 23.9 24.3 18.1 70 3.6 SSE 13 19 7 10 1013.4 1013.4 0.0
12/07:00am 22.0 21.5 17.8 77 2.6 SE 17 19 9 10 1013.2 1013.2 0.0
12/06:30am 20.8 20.9 17.4 81 2.1 SE 13 17 7 9 1013.0 1013.0 0.0
12/06:00am 20.8 21.3 17.4 81 2.1 SSE 11 17 6 9 1012.8 1012.8 0.0
12/05:30am 20.2 19.3 17.8 86 1.5 SE 19 22 10 12 1012.6 1012.6 0.0
12/05:00am 20.5 20.3 17.7 84 1.7 SE 15 19 8 10 1012.6 1012.6 0.0
12/04:30am 20.4 19.3 17.8 85 1.6 SE 20 24 11 13 1012.5 1012.5 0.0
12/04:00am 20.7 19.9 17.9 84 1.7 SE 19 24 10 13 1012.5 1012.5 0.0
12/03:30am 20.9 20.1 17.9 83 1.9 SE 19 22 10 12 1012.6 1012.6 0.0
12/03:00am 21.0 20.2 18.0 83 1.9 SE 19 20 10 11 1012.9 1012.9 0.0
12/02:30am 21.1 21.0 17.9 82 2.0 SE 15 17 8 9 1013.0 1013.0 0.0
12/02:00am 21.2 20.4 18.0 82 2.0 SE 19 22 10 12 1013.1 1013.1 0.0
12/01:30am 21.2 20.9 18.2 83 1.9 SE 17 19 9 10 1013.4 1013.4 0.0
12/01:00am 21.3 21.6 18.7 85 1.6 SE 15 19 8 10 1013.6 1013.6 0.0
12/12:30am 21.6 21.4 18.6 83 1.9 SE 17 20 9 11 1013.8 1013.8 0.0
12/12:00am 21.8 22.0 18.6 82 2.0 SE 15 19 8 10 1014.1 1014.1 0.0
 
Date/Time
EST
Temp
°C
App
Temp
°C
Dew
Point
°C
Rel
Hum
%
Delta-T
°C
Wind Press
QNH
hPa
Press
MSL
hPa
Rain since
9am
mm
Dir  Spd
km/h
Gust
km/h
Spd
kts
Gust
kts
11/11:30pm 22.2 22.3 18.4 79 2.4 ESE 15 19 8 10 1014.3 1014.3 0.0
11/11:00pm 23.8 23.5 17.3 67 4.0 S 15 24 8 13 1014.4 1014.4 0.0
11/10:30pm 23.6 23.4 17.6 69 3.7 SSE 15 22 8 12 1014.6 1014.6 0.0
11/10:00pm 23.6 23.4 17.6 69 3.7 SSE 15 19 8 10 1014.7 1014.7 0.0
11/09:30pm 23.9 22.8 17.2 66 4.1 SSE 19 30 10 16 1014.7 1014.7 0.0
11/09:00pm 23.8 23.3 17.8 69 3.7 SSE 17 24 9 13 1014.6 1014.6 0.0
11/08:30pm 23.7 23.8 18.4 72 3.3 SSE 15 19 8 10 1014.2 1014.2 0.0
11/08:00pm 24.1 24.7 18.5 71 3.5 SSE 13 19 7 10 1013.9 1013.9 0.0
11/07:30pm 24.9 25.1 18.6 68 4.0 S 15 24 8 13 1013.4 1013.4 0.0
11/07:00pm 25.3 24.6 18.2 64 4.5 SSE 19 28 10 15 1013.1 1013.1 0.0
11/06:30pm 25.7 24.6 18.6 65 4.5 SSE 22 33 12 18 1012.6 1012.6 0.0
11/06:00pm 26.3 23.8 18.9 63 4.7 SE 30 37 16 20 1012.3 1012.3 0.0
11/05:30pm 27.0 24.4 19.6 64 4.8 SE 32 35 17 19 1012.3 1012.3 0.0
11/05:00pm 28.0 26.0 20.0 61 5.2 SE 30 37 16 20 1012.0 1012.0 0.0
11/04:30pm 28.5 26.4 19.7 59 5.7 SE 30 37 16 20 1011.6 1011.6 0.0
11/04:00pm 29.1 27.1 20.0 58 6.0 SE 30 35 16 19 1011.2 1011.2 0.0
11/03:30pm 28.9 26.7 19.5 57 6.1 SE 30 37 16 20 1011.0 1011.0 0.0
11/03:00pm 29.3 27.3 19.9 57 6.2 SE 30 37 16 20 1010.8 1010.8 0.0
11/02:30pm 29.4 27.0 20.0 57 6.2 SE 32 37 17 20 1010.9 1010.9 0.0
11/02:00pm 30.2 28.6 20.7 56 6.3 SE 30 37 16 20 1011.0 1011.0 0.0
11/01:30pm 29.9 27.5 19.9 55 6.6 SE 32 37 17 20 1011.3 1011.3 0.0
11/01:00pm 29.9 27.5 19.0 52 7.1 ESE 30 37 16 20 1011.7 1011.7 0.0
11/12:30pm 30.6 28.0 19.9 52 7.0 ESE 33 39 18 21 1012.2 1012.2 0.0
11/12:00pm 30.0 27.7 19.4 53 6.9 SE 30 39 16 21 1012.7 1012.7 0.0
11/11:30am 30.0 28.9 21.7 61 5.6 SE 30 37 16 20 1013.3 1013.3 0.0
11/11:00am 29.6 27.6 20.7 58 5.9 SE 32 39 17 21 1013.5 1013.5 0.0
11/10:30am 29.5 28.3 20.9 60 5.7 SE 28 41 15 22 1013.8 1013.8 0.0
11/10:00am 28.4 29.4 22.2 69 4.2 SSE 20 30 11 16 1014.0 1014.0 0.0
11/09:30am 27.6 28.7 21.2 68 4.3 S 17 26 9 14 1013.8 1013.8 0.0
11/09:00am 27.4 29.1 21.7 71 3.8 S 15 22 8 12 1013.5 1013.5 0.0
11/08:30am 26.7 28.3 20.8 70 3.9 S 13 20 7 11 1013.3 1013.3 0.0
11/08:00am 26.5 28.1 20.8 71 3.8 S 13 19 7 10 1012.9 1012.9 0.0
11/07:30am 25.1 27.0 21.4 80 2.4 SSE 13 19 7 10 1012.5 1012.5 0.0
11/07:00am 23.4 25.1 21.7 90 1.1 SE 15 19 8 10 1012.2 1012.2 0.0
11/06:30am 22.8 23.6 21.4 92 0.9 SE 19 22 10 12 1011.9 1011.9 0.0
11/06:00am 23.2 24.3 21.3 89 1.2 SSE 17 20 9 11 1011.7 1011.7 0.0
11/05:30am 24.6 26.0 21.1 81 2.3 S 15 24 8 13 1011.5 1011.5 0.0
11/05:00am 24.5 26.3 21.2 82 2.2 S 13 20 7 11 1011.2 1011.2 0.0
11/04:30am 24.8 26.8 21.5 82 2.2 SSE 13 19 7 10 1011.1 1011.1 0.0

Other formats

Comma delimited format used in spreadsheet applications
http://www.bom.gov.au/fwo/IDQ60801/IDQ60801.94287.axf

JavaScript Object Notation format (JSON) in row-major order
http://www.bom.gov.au/fwo/IDQ60801/IDQ60801.94287.json

Data quality

Most of these data are generated automatically and are frequently updated. Quality checks on data are not normally performed. It is possible for incorrect values to appear. Refer to information at About Latest Weather Observations and please check the disclaimer before using these data.